sensor_id;sensor_type;location;lat;lon;timestamp;P1;durP1;ratioP1;P2;durP2;ratioP2
45254;SDS011;30989;52.078;21.014;2023-12-29T00:00:15;18.85;;;7.32;;
45254;SDS011;30989;52.078;21.014;2023-12-29T00:02:41;19.40;;;7.05;;
45254;SDS011;30989;52.078;21.014;2023-12-29T00:05:07;19.63;;;7.30;;
45254;SDS011;30989;52.078;21.014;2023-12-29T00:07:32;17.58;;;7.85;;
45254;SDS011;30989;52.078;21.014;2023-12-29T00:09:58;17.48;;;6.63;;
45254;SDS011;30989;52.078;21.014;2023-12-29T00:12:23;18.13;;;7.05;;
45254;SDS011;30989;52.078;21.014;2023-12-29T00:14:49;16.85;;;6.78;;
45254;SDS011;30989;52.078;21.014;2023-12-29T00:17:14;17.83;;;7.70;;
45254;SDS011;30989;52.078;21.014;2023-12-29T00:19:40;20.95;;;7.75;;
45254;SDS011;30989;52.078;21.014;2023-12-29T00:22:05;18.45;;;7.05;;
45254;SDS011;30989;52.078;21.014;2023-12-29T00:24:31;21.98;;;8.05;;
45254;SDS011;30989;52.078;21.014;2023-12-29T00:26:57;20.50;;;8.75;;
45254;SDS011;30989;52.078;21.014;2023-12-29T00:29:23;20.00;;;8.00;;
45254;SDS011;30989;52.078;21.014;2023-12-29T00:31:49;17.02;;;7.30;;
45254;SDS011;30989;52.078;21.014;2023-12-29T00:34:14;14.80;;;7.10;;
45254;SDS011;30989;52.078;21.014;2023-12-29T00:36:40;18.88;;;7.43;;
45254;SDS011;30989;52.078;21.014;2023-12-29T00:39:05;21.45;;;8.48;;
45254;SDS011;30989;52.078;21.014;2023-12-29T00:41:31;19.48;;;8.30;;
45254;SDS011;30989;52.078;21.014;2023-12-29T00:43:57;18.52;;;7.18;;
45254;SDS011;30989;52.078;21.014;2023-12-29T00:46:23;18.88;;;7.20;;
45254;SDS011;30989;52.078;21.014;2023-12-29T00:48:48;18.63;;;7.25;;
45254;SDS011;30989;52.078;21.014;2023-12-29T00:51:14;20.92;;;8.23;;
45254;SDS011;30989;52.078;21.014;2023-12-29T00:53:42;17.85;;;7.80;;
45254;SDS011;30989;52.078;21.014;2023-12-29T00:56:11;15.13;;;6.95;;
45254;SDS011;30989;52.078;21.014;2023-12-29T00:58:38;21.48;;;7.85;;
45254;SDS011;30989;52.078;21.014;2023-12-29T01:01:04;20.67;;;7.47;;
45254;SDS011;30989;52.078;21.014;2023-12-29T01:03:33;16.10;;;7.68;;
45254;SDS011;30989;52.078;21.014;2023-12-29T01:05:59;16.88;;;8.32;;
45254;SDS011;30989;52.078;21.014;2023-12-29T01:08:25;19.50;;;8.93;;
45254;SDS011;30989;52.078;21.014;2023-12-29T01:10:51;23.02;;;8.25;;
45254;SDS011;30989;52.078;21.014;2023-12-29T01:13:16;21.75;;;8.00;;
45254;SDS011;30989;52.078;21.014;2023-12-29T01:15:42;19.65;;;8.00;;
45254;SDS011;30989;52.078;21.014;2023-12-29T01:18:11;20.60;;;8.00;;
45254;SDS011;30989;52.078;21.014;2023-12-29T01:20:37;13.88;;;7.22;;
45254;SDS011;30989;52.078;21.014;2023-12-29T01:23:05;22.10;;;8.45;;
45254;SDS011;30989;52.078;21.014;2023-12-29T01:25:30;27.83;;;8.95;;
45254;SDS011;30989;52.078;21.014;2023-12-29T01:27:56;16.77;;;7.13;;
45254;SDS011;30989;52.078;21.014;2023-12-29T01:30:21;19.75;;;7.72;;
45254;SDS011;30989;52.078;21.014;2023-12-29T01:32:46;19.45;;;7.97;;
45254;SDS011;30989;52.078;21.014;2023-12-29T01:35:13;17.92;;;8.55;;
45254;SDS011;30989;52.078;21.014;2023-12-29T01:37:38;17.83;;;8.25;;
45254;SDS011;30989;52.078;21.014;2023-12-29T01:40:04;21.63;;;8.25;;
45254;SDS011;30989;52.078;21.014;2023-12-29T01:42:30;16.38;;;8.02;;
45254;SDS011;30989;52.078;21.014;2023-12-29T01:44:55;18.58;;;7.78;;
45254;SDS011;30989;52.078;21.014;2023-12-29T01:47:21;18.05;;;7.93;;
45254;SDS011;30989;52.078;21.014;2023-12-29T01:49:47;23.45;;;9.27;;
45254;SDS011;30989;52.078;21.014;2023-12-29T01:52:14;18.90;;;7.78;;
45254;SDS011;30989;52.078;21.014;2023-12-29T01:54:43;18.50;;;8.40;;
45254;SDS011;30989;52.078;21.014;2023-12-29T01:57:11;18.48;;;7.53;;
45254;SDS011;30989;52.078;21.014;2023-12-29T01:59:37;21.63;;;8.43;;
45254;SDS011;30989;52.078;21.014;2023-12-29T02:02:06;20.50;;;8.27;;
45254;SDS011;30989;52.078;21.014;2023-12-29T02:04:31;22.80;;;9.80;;
45254;SDS011;30989;52.078;21.014;2023-12-29T02:06:57;20.52;;;7.85;;
45254;SDS011;30989;52.078;21.014;2023-12-29T02:09:24;19.83;;;8.45;;
45254;SDS011;30989;52.078;21.014;2023-12-29T02:11:50;18.77;;;7.32;;
45254;SDS011;30989;52.078;21.014;2023-12-29T02:14:16;24.38;;;9.95;;
45254;SDS011;30989;52.078;21.014;2023-12-29T02:16:46;21.15;;;9.25;;
45254;SDS011;30989;52.078;21.014;2023-12-29T02:19:40;22.38;;;8.52;;
45254;SDS011;30989;52.078;21.014;2023-12-29T02:22:10;20.20;;;7.95;;
45254;SDS011;30989;52.078;21.014;2023-12-29T02:24:36;19.38;;;8.80;;
45254;SDS011;30989;52.078;21.014;2023-12-29T02:27:07;19.25;;;9.23;;
45254;SDS011;30989;52.078;21.014;2023-12-29T02:29:44;23.70;;;9.43;;
45254;SDS011;30989;52.078;21.014;2023-12-29T02:32:31;23.35;;;9.18;;
45254;SDS011;30989;52.078;21.014;2023-12-29T02:34:59;24.85;;;10.30;;
45254;SDS011;30989;52.078;21.014;2023-12-29T02:37:26;23.67;;;10.48;;
45254;SDS011;30989;52.078;21.014;2023-12-29T02:39:54;20.13;;;9.60;;
45254;SDS011;30989;52.078;21.014;2023-12-29T02:42:21;21.45;;;9.73;;
45254;SDS011;30989;52.078;21.014;2023-12-29T02:44:47;25.63;;;10.18;;
45254;SDS011;30989;52.078;21.014;2023-12-29T02:47:12;18.38;;;9.40;;
45254;SDS011;30989;52.078;21.014;2023-12-29T02:49:37;20.92;;;9.45;;
45254;SDS011;30989;52.078;21.014;2023-12-29T02:52:03;25.60;;;9.60;;
45254;SDS011;30989;52.078;21.014;2023-12-29T02:54:31;23.33;;;10.35;;
45254;SDS011;30989;52.078;21.014;2023-12-29T02:56:57;22.75;;;9.23;;
45254;SDS011;30989;52.078;21.014;2023-12-29T02:59:22;26.85;;;10.00;;
45254;SDS011;30989;52.078;21.014;2023-12-29T03:01:47;21.45;;;9.40;;
45254;SDS011;30989;52.078;21.014;2023-12-29T03:04:13;19.98;;;9.18;;
45254;SDS011;30989;52.078;21.014;2023-12-29T03:06:39;25.35;;;9.82;;
45254;SDS011;30989;52.078;21.014;2023-12-29T03:09:05;23.08;;;10.15;;
45254;SDS011;30989;52.078;21.014;2023-12-29T03:11:30;21.33;;;8.82;;
45254;SDS011;30989;52.078;21.014;2023-12-29T03:13:57;24.80;;;9.02;;
45254;SDS011;30989;52.078;21.014;2023-12-29T03:16:22;20.67;;;9.93;;
45254;SDS011;30989;52.078;21.014;2023-12-29T03:18:48;23.65;;;9.13;;
45254;SDS011;30989;52.078;21.014;2023-12-29T03:21:13;26.95;;;10.50;;
45254;SDS011;30989;52.078;21.014;2023-12-29T03:23:39;27.30;;;10.52;;
45254;SDS011;30989;52.078;21.014;2023-12-29T03:26:04;19.70;;;9.45;;
45254;SDS011;30989;52.078;21.014;2023-12-29T03:28:30;33.47;;;11.02;;
45254;SDS011;30989;52.078;21.014;2023-12-29T03:30:55;22.20;;;10.25;;
45254;SDS011;30989;52.078;21.014;2023-12-29T03:33:20;24.02;;;10.35;;
45254;SDS011;30989;52.078;21.014;2023-12-29T03:35:46;23.73;;;9.65;;
45254;SDS011;30989;52.078;21.014;2023-12-29T03:38:13;24.50;;;10.00;;
45254;SDS011;30989;52.078;21.014;2023-12-29T03:40:39;21.45;;;9.18;;
45254;SDS011;30989;52.078;21.014;2023-12-29T03:43:05;21.92;;;9.57;;
45254;SDS011;30989;52.078;21.014;2023-12-29T03:45:30;21.17;;;9.57;;
45254;SDS011;30989;52.078;21.014;2023-12-29T03:47:56;25.42;;;10.55;;
45254;SDS011;30989;52.078;21.014;2023-12-29T03:50:21;28.13;;;11.60;;
45254;SDS011;30989;52.078;21.014;2023-12-29T03:52:48;26.80;;;10.45;;
45254;SDS011;30989;52.078;21.014;2023-12-29T03:55:14;23.17;;;8.98;;
45254;SDS011;30989;52.078;21.014;2023-12-29T03:57:42;24.85;;;10.88;;
45254;SDS011;30989;52.078;21.014;2023-12-29T04:00:10;23.77;;;9.73;;
45254;SDS011;30989;52.078;21.014;2023-12-29T04:02:37;22.17;;;9.65;;
45254;SDS011;30989;52.078;21.014;2023-12-29T04:05:03;23.50;;;10.27;;
45254;SDS011;30989;52.078;21.014;2023-12-29T04:07:30;22.52;;;9.52;;
45254;SDS011;30989;52.078;21.014;2023-12-29T04:09:55;26.58;;;11.13;;
45254;SDS011;30989;52.078;21.014;2023-12-29T04:12:21;23.52;;;10.15;;
45254;SDS011;30989;52.078;21.014;2023-12-29T04:14:46;22.52;;;9.50;;
45254;SDS011;30989;52.078;21.014;2023-12-29T04:17:12;25.35;;;10.57;;
45254;SDS011;30989;52.078;21.014;2023-12-29T04:19:40;20.98;;;9.73;;
45254;SDS011;30989;52.078;21.014;2023-12-29T04:22:06;24.65;;;10.02;;
45254;SDS011;30989;52.078;21.014;2023-12-29T04:24:32;24.05;;;10.57;;
45254;SDS011;30989;52.078;21.014;2023-12-29T04:27:01;29.25;;;11.88;;
45254;SDS011;30989;52.078;21.014;2023-12-29T04:29:26;24.60;;;10.35;;
45254;SDS011;30989;52.078;21.014;2023-12-29T04:31:52;21.15;;;9.55;;
45254;SDS011;30989;52.078;21.014;2023-12-29T04:34:18;28.98;;;13.50;;
45254;SDS011;30989;52.078;21.014;2023-12-29T04:36:44;22.95;;;10.18;;
45254;SDS011;30989;52.078;21.014;2023-12-29T04:39:09;26.95;;;11.00;;
45254;SDS011;30989;52.078;21.014;2023-12-29T04:41:35;30.90;;;11.40;;
45254;SDS011;30989;52.078;21.014;2023-12-29T04:44:02;22.85;;;10.45;;
45254;SDS011;30989;52.078;21.014;2023-12-29T04:46:28;23.75;;;10.68;;
45254;SDS011;30989;52.078;21.014;2023-12-29T04:48:53;20.27;;;9.00;;
45254;SDS011;30989;52.078;21.014;2023-12-29T04:51:19;25.35;;;10.07;;
45254;SDS011;30989;52.078;21.014;2023-12-29T04:53:45;22.77;;;9.98;;
45254;SDS011;30989;52.078;21.014;2023-12-29T04:56:11;19.98;;;8.77;;
45254;SDS011;30989;52.078;21.014;2023-12-29T04:58:37;26.70;;;9.60;;
45254;SDS011;30989;52.078;21.014;2023-12-29T05:01:02;24.20;;;9.93;;
45254;SDS011;30989;52.078;21.014;2023-12-29T05:03:28;22.27;;;9.68;;
45254;SDS011;30989;52.078;21.014;2023-12-29T05:05:53;19.65;;;8.93;;
45254;SDS011;30989;52.078;21.014;2023-12-29T05:08:19;22.60;;;9.75;;
45254;SDS011;30989;52.078;21.014;2023-12-29T05:10:44;19.48;;;9.07;;
45254;SDS011;30989;52.078;21.014;2023-12-29T05:13:10;22.38;;;8.65;;
45254;SDS011;30989;52.078;21.014;2023-12-29T05:15:35;20.52;;;8.80;;
45254;SDS011;30989;52.078;21.014;2023-12-29T05:18:00;21.63;;;9.80;;
45254;SDS011;30989;52.078;21.014;2023-12-29T05:20:26;20.70;;;8.55;;
45254;SDS011;30989;52.078;21.014;2023-12-29T05:22:51;26.90;;;8.35;;
45254;SDS011;30989;52.078;21.014;2023-12-29T05:25:17;22.00;;;8.63;;
45254;SDS011;30989;52.078;21.014;2023-12-29T05:27:42;18.95;;;7.97;;
45254;SDS011;30989;52.078;21.014;2023-12-29T05:30:08;19.17;;;8.18;;
45254;SDS011;30989;52.078;21.014;2023-12-29T05:32:35;20.95;;;8.63;;
45254;SDS011;30989;52.078;21.014;2023-12-29T05:35:00;19.27;;;8.43;;
45254;SDS011;30989;52.078;21.014;2023-12-29T05:37:26;17.92;;;7.53;;
45254;SDS011;30989;52.078;21.014;2023-12-29T05:39:51;16.58;;;7.97;;
45254;SDS011;30989;52.078;21.014;2023-12-29T05:42:17;18.67;;;8.68;;
45254;SDS011;30989;52.078;21.014;2023-12-29T05:44:42;22.83;;;8.57;;
45254;SDS011;30989;52.078;21.014;2023-12-29T05:47:08;20.15;;;9.13;;
45254;SDS011;30989;52.078;21.014;2023-12-29T05:49:34;21.15;;;7.10;;
45254;SDS011;30989;52.078;21.014;2023-12-29T05:52:04;18.10;;;8.48;;
45254;SDS011;30989;52.078;21.014;2023-12-29T05:54:30;21.73;;;9.70;;
45254;SDS011;30989;52.078;21.014;2023-12-29T05:56:56;22.70;;;8.55;;
45254;SDS011;30989;52.078;21.014;2023-12-29T05:59:21;19.20;;;7.55;;
45254;SDS011;30989;52.078;21.014;2023-12-29T06:01:46;14.13;;;7.40;;
45254;SDS011;30989;52.078;21.014;2023-12-29T06:04:12;19.85;;;8.45;;
45254;SDS011;30989;52.078;21.014;2023-12-29T06:06:37;19.00;;;8.25;;
45254;SDS011;30989;52.078;21.014;2023-12-29T06:09:03;19.55;;;8.52;;
45254;SDS011;30989;52.078;21.014;2023-12-29T06:11:28;15.93;;;6.97;;
45254;SDS011;30989;52.078;21.014;2023-12-29T06:13:54;18.83;;;8.38;;
45254;SDS011;30989;52.078;21.014;2023-12-29T06:16:19;17.30;;;7.97;;
45254;SDS011;30989;52.078;21.014;2023-12-29T06:18:46;18.55;;;8.15;;
45254;SDS011;30989;52.078;21.014;2023-12-29T06:21:12;17.00;;;7.85;;
45254;SDS011;30989;52.078;21.014;2023-12-29T06:23:37;19.35;;;8.10;;
45254;SDS011;30989;52.078;21.014;2023-12-29T06:26:03;18.02;;;8.60;;
45254;SDS011;30989;52.078;21.014;2023-12-29T06:28:28;19.65;;;7.78;;
45254;SDS011;30989;52.078;21.014;2023-12-29T06:30:54;41.33;;;16.50;;
45254;SDS011;30989;52.078;21.014;2023-12-29T06:33:19;18.67;;;9.02;;
45254;SDS011;30989;52.078;21.014;2023-12-29T06:35:48;16.35;;;8.40;;
45254;SDS011;30989;52.078;21.014;2023-12-29T06:38:13;15.60;;;6.82;;
45254;SDS011;30989;52.078;21.014;2023-12-29T06:40:39;21.17;;;8.85;;
45254;SDS011;30989;52.078;21.014;2023-12-29T06:43:05;20.23;;;7.97;;
45254;SDS011;30989;52.078;21.014;2023-12-29T06:45:31;19.00;;;8.32;;
45254;SDS011;30989;52.078;21.014;2023-12-29T06:47:56;17.98;;;7.68;;
45254;SDS011;30989;52.078;21.014;2023-12-29T06:50:22;16.73;;;7.55;;
45254;SDS011;30989;52.078;21.014;2023-12-29T06:52:47;20.73;;;8.55;;
45254;SDS011;30989;52.078;21.014;2023-12-29T06:55:13;17.30;;;8.43;;
45254;SDS011;30989;52.078;21.014;2023-12-29T06:57:38;18.85;;;7.45;;
45254;SDS011;30989;52.078;21.014;2023-12-29T07:00:06;15.88;;;7.65;;
45254;SDS011;30989;52.078;21.014;2023-12-29T07:02:32;16.60;;;8.15;;
45254;SDS011;30989;52.078;21.014;2023-12-29T07:04:57;16.00;;;8.07;;
45254;SDS011;30989;52.078;21.014;2023-12-29T07:07:23;20.95;;;8.23;;
45254;SDS011;30989;52.078;21.014;2023-12-29T07:09:49;16.75;;;8.00;;
45254;SDS011;30989;52.078;21.014;2023-12-29T07:12:14;20.35;;;8.20;;
45254;SDS011;30989;52.078;21.014;2023-12-29T07:14:43;17.83;;;8.13;;
45254;SDS011;30989;52.078;21.014;2023-12-29T07:17:08;24.52;;;9.82;;
45254;SDS011;30989;52.078;21.014;2023-12-29T07:19:34;17.33;;;7.40;;
45254;SDS011;30989;52.078;21.014;2023-12-29T07:22:02;20.73;;;9.20;;
45254;SDS011;30989;52.078;21.014;2023-12-29T07:24:28;17.90;;;9.48;;
45254;SDS011;30989;52.078;21.014;2023-12-29T07:26:54;20.30;;;9.32;;
45254;SDS011;30989;52.078;21.014;2023-12-29T07:29:19;18.13;;;8.07;;
45254;SDS011;30989;52.078;21.014;2023-12-29T07:31:45;15.50;;;6.78;;
45254;SDS011;30989;52.078;21.014;2023-12-29T07:34:10;16.95;;;8.05;;
45254;SDS011;30989;52.078;21.014;2023-12-29T07:36:39;14.98;;;7.75;;
45254;SDS011;30989;52.078;21.014;2023-12-29T07:39:05;18.95;;;8.50;;
45254;SDS011;30989;52.078;21.014;2023-12-29T07:41:31;16.45;;;8.27;;
45254;SDS011;30989;52.078;21.014;2023-12-29T07:43:57;15.70;;;7.22;;
45254;SDS011;30989;52.078;21.014;2023-12-29T07:46:25;16.60;;;7.93;;
45254;SDS011;30989;52.078;21.014;2023-12-29T07:48:51;17.75;;;8.75;;
45254;SDS011;30989;52.078;21.014;2023-12-29T07:51:17;19.30;;;8.98;;
45254;SDS011;30989;52.078;21.014;2023-12-29T07:53:43;20.10;;;8.50;;
45254;SDS011;30989;52.078;21.014;2023-12-29T07:56:10;20.70;;;8.13;;
45254;SDS011;30989;52.078;21.014;2023-12-29T07:58:36;15.02;;;7.85;;
45254;SDS011;30989;52.078;21.014;2023-12-29T08:01:01;18.10;;;8.57;;
45254;SDS011;30989;52.078;21.014;2023-12-29T08:03:26;16.88;;;8.18;;
45254;SDS011;30989;52.078;21.014;2023-12-29T08:05:52;15.45;;;7.43;;
45254;SDS011;30989;52.078;21.014;2023-12-29T08:08:17;16.10;;;7.40;;
45254;SDS011;30989;52.078;21.014;2023-12-29T08:10:43;18.00;;;7.50;;
45254;SDS011;30989;52.078;21.014;2023-12-29T08:13:08;16.13;;;7.40;;
45254;SDS011;30989;52.078;21.014;2023-12-29T08:15:34;18.08;;;7.28;;
45254;SDS011;30989;52.078;21.014;2023-12-29T08:18:00;14.57;;;6.93;;
45254;SDS011;30989;52.078;21.014;2023-12-29T08:20:26;19.98;;;10.07;;
45254;SDS011;30989;52.078;21.014;2023-12-29T08:22:52;14.38;;;7.50;;
45254;SDS011;30989;52.078;21.014;2023-12-29T08:25:18;15.15;;;7.88;;
45254;SDS011;30989;52.078;21.014;2023-12-29T08:27:43;15.93;;;7.15;;
45254;SDS011;30989;52.078;21.014;2023-12-29T08:30:09;14.00;;;7.00;;
45254;SDS011;30989;52.078;21.014;2023-12-29T08:32:34;14.40;;;6.43;;
45254;SDS011;30989;52.078;21.014;2023-12-29T08:35:00;14.80;;;6.53;;
45254;SDS011;30989;52.078;21.014;2023-12-29T08:37:25;17.00;;;6.35;;
45254;SDS011;30989;52.078;21.014;2023-12-29T08:39:51;14.05;;;6.35;;
45254;SDS011;30989;52.078;21.014;2023-12-29T08:42:16;15.40;;;5.72;;
45254;SDS011;30989;52.078;21.014;2023-12-29T08:44:42;13.13;;;6.38;;
45254;SDS011;30989;52.078;21.014;2023-12-29T08:47:07;11.88;;;5.57;;
45254;SDS011;30989;52.078;21.014;2023-12-29T08:49:36;13.15;;;6.43;;
45254;SDS011;30989;52.078;21.014;2023-12-29T08:52:02;25.65;;;10.73;;
45254;SDS011;30989;52.078;21.014;2023-12-29T08:54:29;14.52;;;6.22;;
45254;SDS011;30989;52.078;21.014;2023-12-29T08:56:54;11.95;;;5.15;;
45254;SDS011;30989;52.078;21.014;2023-12-29T08:59:20;11.13;;;5.43;;
45254;SDS011;30989;52.078;21.014;2023-12-29T09:01:45;12.00;;;5.22;;
45254;SDS011;30989;52.078;21.014;2023-12-29T09:04:10;11.45;;;5.78;;
45254;SDS011;30989;52.078;21.014;2023-12-29T09:06:36;12.68;;;6.53;;
45254;SDS011;30989;52.078;21.014;2023-12-29T09:09:01;12.75;;;6.28;;
45254;SDS011;30989;52.078;21.014;2023-12-29T09:11:27;13.88;;;6.30;;
45254;SDS011;30989;52.078;21.014;2023-12-29T09:13:52;15.43;;;5.50;;
45254;SDS011;30989;52.078;21.014;2023-12-29T09:16:18;12.30;;;6.18;;
45254;SDS011;30989;52.078;21.014;2023-12-29T09:18:43;12.50;;;6.55;;
45254;SDS011;30989;52.078;21.014;2023-12-29T09:21:08;13.77;;;5.53;;
45254;SDS011;30989;52.078;21.014;2023-12-29T09:23:34;11.52;;;5.57;;
45254;SDS011;30989;52.078;21.014;2023-12-29T09:26:02;11.65;;;4.72;;
45254;SDS011;30989;52.078;21.014;2023-12-29T09:28:28;13.77;;;5.60;;
45254;SDS011;30989;52.078;21.014;2023-12-29T09:30:53;11.07;;;4.93;;
45254;SDS011;30989;52.078;21.014;2023-12-29T09:33:19;15.20;;;6.28;;
45254;SDS011;30989;52.078;21.014;2023-12-29T09:35:44;12.38;;;5.68;;
45254;SDS011;30989;52.078;21.014;2023-12-29T09:38:10;10.77;;;5.03;;
45254;SDS011;30989;52.078;21.014;2023-12-29T09:40:35;12.85;;;6.28;;
45254;SDS011;30989;52.078;21.014;2023-12-29T09:43:01;12.95;;;6.10;;
45254;SDS011;30989;52.078;21.014;2023-12-29T09:45:28;13.13;;;5.65;;
45254;SDS011;30989;52.078;21.014;2023-12-29T09:47:54;12.15;;;5.28;;
45254;SDS011;30989;52.078;21.014;2023-12-29T09:50:21;11.88;;;6.60;;
45254;SDS011;30989;52.078;21.014;2023-12-29T09:52:48;11.38;;;5.40;;
45254;SDS011;30989;52.078;21.014;2023-12-29T09:55:17;14.85;;;5.85;;
45254;SDS011;30989;52.078;21.014;2023-12-29T09:57:43;12.68;;;6.43;;
45254;SDS011;30989;52.078;21.014;2023-12-29T10:00:12;10.68;;;5.70;;
45254;SDS011;30989;52.078;21.014;2023-12-29T10:02:41;10.27;;;5.35;;
45254;SDS011;30989;52.078;21.014;2023-12-29T10:05:06;12.38;;;4.90;;
45254;SDS011;30989;52.078;21.014;2023-12-29T10:07:37;11.38;;;5.05;;
45254;SDS011;30989;52.078;21.014;2023-12-29T10:10:04;13.35;;;4.90;;
45254;SDS011;30989;52.078;21.014;2023-12-29T10:12:35;12.38;;;5.25;;
45254;SDS011;30989;52.078;21.014;2023-12-29T10:15:04;10.98;;;5.15;;
45254;SDS011;30989;52.078;21.014;2023-12-29T10:23:08;12.38;;;4.43;;
45254;SDS011;30989;52.078;21.014;2023-12-29T10:25:38;10.15;;;4.60;;
45254;SDS011;30989;52.078;21.014;2023-12-29T10:28:07;9.60;;;5.25;;
45254;SDS011;30989;52.078;21.014;2023-12-29T10:30:35;10.82;;;4.97;;
45254;SDS011;30989;52.078;21.014;2023-12-29T10:33:00;10.38;;;4.85;;
45254;SDS011;30989;52.078;21.014;2023-12-29T10:35:28;13.00;;;5.05;;
45254;SDS011;30989;52.078;21.014;2023-12-29T10:38:09;11.32;;;5.53;;
45254;SDS011;30989;52.078;21.014;2023-12-29T10:40:36;12.50;;;4.88;;
45254;SDS011;30989;52.078;21.014;2023-12-29T10:43:01;9.93;;;4.50;;
45254;SDS011;30989;52.078;21.014;2023-12-29T10:45:32;9.82;;;4.50;;
45254;SDS011;30989;52.078;21.014;2023-12-29T10:48:01;9.88;;;4.25;;
45254;SDS011;30989;52.078;21.014;2023-12-29T10:50:26;8.23;;;4.25;;
45254;SDS011;30989;52.078;21.014;2023-12-29T10:53:36;9.48;;;4.45;;
45254;SDS011;30989;52.078;21.014;2023-12-29T10:55:44;7.03;;;3.22;;
45254;SDS011;30989;52.078;21.014;2023-12-29T10:58:09;6.93;;;3.47;;
45254;SDS011;30989;52.078;21.014;2023-12-29T11:00:35;11.73;;;3.95;;
45254;SDS011;30989;52.078;21.014;2023-12-29T11:03:00;7.93;;;3.95;;
45254;SDS011;30989;52.078;21.014;2023-12-29T11:05:26;8.40;;;3.90;;
45254;SDS011;30989;52.078;21.014;2023-12-29T11:07:53;9.00;;;4.05;;
45254;SDS011;30989;52.078;21.014;2023-12-29T11:10:20;8.02;;;4.13;;
45254;SDS011;30989;52.078;21.014;2023-12-29T11:12:47;5.35;;;2.90;;
45254;SDS011;30989;52.078;21.014;2023-12-29T11:15:13;7.65;;;3.50;;
45254;SDS011;30989;52.078;21.014;2023-12-29T11:17:41;7.95;;;3.90;;
45254;SDS011;30989;52.078;21.014;2023-12-29T11:20:16;7.82;;;3.45;;
45254;SDS011;30989;52.078;21.014;2023-12-29T11:22:42;6.07;;;3.08;;
45254;SDS011;30989;52.078;21.014;2023-12-29T11:25:09;5.68;;;2.83;;
45254;SDS011;30989;52.078;21.014;2023-12-29T11:27:36;5.85;;;2.72;;
45254;SDS011;30989;52.078;21.014;2023-12-29T11:30:03;7.60;;;2.72;;
45254;SDS011;30989;52.078;21.014;2023-12-29T11:32:34;5.47;;;2.42;;
45254;SDS011;30989;52.078;21.014;2023-12-29T11:35:17;7.40;;;3.22;;
45254;SDS011;30989;52.078;21.014;2023-12-29T11:37:49;5.60;;;2.88;;
45254;SDS011;30989;52.078;21.014;2023-12-29T11:40:42;5.85;;;2.72;;
45254;SDS011;30989;52.078;21.014;2023-12-29T11:43:16;5.22;;;2.10;;
45254;SDS011;30989;52.078;21.014;2023-12-29T11:45:43;5.30;;;2.13;;
45254;SDS011;30989;52.078;21.014;2023-12-29T11:48:10;5.03;;;2.25;;
45254;SDS011;30989;52.078;21.014;2023-12-29T11:50:38;8.23;;;2.50;;
45254;SDS011;30989;52.078;21.014;2023-12-29T11:53:07;5.32;;;2.40;;
45254;SDS011;30989;52.078;21.014;2023-12-29T11:55:36;8.55;;;2.90;;
45254;SDS011;30989;52.078;21.014;2023-12-29T11:58:05;8.00;;;2.90;;
45254;SDS011;30989;52.078;21.014;2023-12-29T12:00:48;4.72;;;2.70;;
45254;SDS011;30989;52.078;21.014;2023-12-29T12:03:18;4.70;;;2.58;;
45254;SDS011;30989;52.078;21.014;2023-12-29T12:05:49;6.38;;;3.08;;
45254;SDS011;30989;52.078;21.014;2023-12-29T12:08:28;7.80;;;3.10;;
45254;SDS011;30989;52.078;21.014;2023-12-29T12:11:44;5.95;;;2.40;;
45254;SDS011;30989;52.078;21.014;2023-12-29T12:13:54;8.18;;;2.83;;
45254;SDS011;30989;52.078;21.014;2023-12-29T12:16:46;5.55;;;2.55;;
45254;SDS011;30989;52.078;21.014;2023-12-29T12:19:11;7.03;;;2.92;;
45254;SDS011;30989;52.078;21.014;2023-12-29T12:21:37;7.15;;;2.90;;
45254;SDS011;30989;52.078;21.014;2023-12-29T12:24:06;6.18;;;2.53;;
45254;SDS011;30989;52.078;21.014;2023-12-29T12:26:32;7.68;;;3.17;;
45254;SDS011;30989;52.078;21.014;2023-12-29T12:28:59;8.30;;;2.95;;
45254;SDS011;30989;52.078;21.014;2023-12-29T12:31:24;5.45;;;2.92;;
45254;SDS011;30989;52.078;21.014;2023-12-29T12:33:54;8.38;;;2.58;;
45254;SDS011;30989;52.078;21.014;2023-12-29T12:36:23;5.93;;;2.90;;
45254;SDS011;30989;52.078;21.014;2023-12-29T12:38:53;8.02;;;2.88;;
45254;SDS011;30989;52.078;21.014;2023-12-29T12:41:25;7.13;;;3.10;;
45254;SDS011;30989;52.078;21.014;2023-12-29T12:46:29;7.28;;;2.63;;
45254;SDS011;30989;52.078;21.014;2023-12-29T12:48:59;7.95;;;2.60;;
45254;SDS011;30989;52.078;21.014;2023-12-29T12:51:25;6.95;;;2.95;;
45254;SDS011;30989;52.078;21.014;2023-12-29T12:53:50;5.00;;;2.40;;
45254;SDS011;30989;52.078;21.014;2023-12-29T12:56:17;6.05;;;2.58;;
45254;SDS011;30989;52.078;21.014;2023-12-29T12:58:44;8.02;;;2.83;;
45254;SDS011;30989;52.078;21.014;2023-12-29T13:01:11;6.43;;;2.92;;
45254;SDS011;30989;52.078;21.014;2023-12-29T13:03:37;7.57;;;3.00;;
45254;SDS011;30989;52.078;21.014;2023-12-29T13:06:04;9.20;;;3.58;;
45254;SDS011;30989;52.078;21.014;2023-12-29T13:08:31;9.57;;;3.90;;
45254;SDS011;30989;52.078;21.014;2023-12-29T13:10:58;8.00;;;2.90;;
45254;SDS011;30989;52.078;21.014;2023-12-29T13:13:35;8.25;;;3.53;;
45254;SDS011;30989;52.078;21.014;2023-12-29T13:16:10;6.47;;;3.10;;
45254;SDS011;30989;52.078;21.014;2023-12-29T13:18:36;9.30;;;4.35;;
45254;SDS011;30989;52.078;21.014;2023-12-29T13:21:01;8.77;;;3.22;;
45254;SDS011;30989;52.078;21.014;2023-12-29T13:23:27;9.35;;;3.13;;
45254;SDS011;30989;52.078;21.014;2023-12-29T13:25:54;6.72;;;3.33;;
45254;SDS011;30989;52.078;21.014;2023-12-29T13:28:22;7.28;;;3.20;;
45254;SDS011;30989;52.078;21.014;2023-12-29T13:30:48;8.63;;;3.60;;
45254;SDS011;30989;52.078;21.014;2023-12-29T13:33:23;7.45;;;3.35;;
45254;SDS011;30989;52.078;21.014;2023-12-29T13:36:01;8.85;;;2.78;;
45254;SDS011;30989;52.078;21.014;2023-12-29T13:38:48;8.32;;;3.33;;
45254;SDS011;30989;52.078;21.014;2023-12-29T13:41:18;7.22;;;3.40;;
45254;SDS011;30989;52.078;21.014;2023-12-29T13:43:46;9.18;;;3.13;;
45254;SDS011;30989;52.078;21.014;2023-12-29T13:46:13;7.63;;;2.88;;
45254;SDS011;30989;52.078;21.014;2023-12-29T13:48:41;7.05;;;3.20;;
45254;SDS011;30989;52.078;21.014;2023-12-29T13:51:09;7.85;;;2.38;;
45254;SDS011;30989;52.078;21.014;2023-12-29T13:53:35;7.95;;;2.72;;
45254;SDS011;30989;52.078;21.014;2023-12-29T13:56:09;6.95;;;2.90;;
45254;SDS011;30989;52.078;21.014;2023-12-29T13:58:35;6.22;;;2.40;;
45254;SDS011;30989;52.078;21.014;2023-12-29T14:01:03;7.20;;;2.78;;
45254;SDS011;30989;52.078;21.014;2023-12-29T14:06:21;6.60;;;2.97;;
45254;SDS011;30989;52.078;21.014;2023-12-29T14:08:52;7.55;;;3.33;;
45254;SDS011;30989;52.078;21.014;2023-12-29T14:11:18;7.63;;;3.72;;
45254;SDS011;30989;52.078;21.014;2023-12-29T14:13:45;9.27;;;3.63;;
45254;SDS011;30989;52.078;21.014;2023-12-29T14:16:11;8.57;;;3.60;;
45254;SDS011;30989;52.078;21.014;2023-12-29T14:24:01;10.10;;;3.92;;
45254;SDS011;30989;52.078;21.014;2023-12-29T14:26:32;8.45;;;3.70;;
45254;SDS011;30989;52.078;21.014;2023-12-29T14:29:04;8.77;;;3.65;;
45254;SDS011;30989;52.078;21.014;2023-12-29T14:31:41;10.10;;;3.15;;
45254;SDS011;30989;52.078;21.014;2023-12-29T14:34:08;6.10;;;3.03;;
45254;SDS011;30989;52.078;21.014;2023-12-29T14:36:34;10.25;;;3.55;;
45254;SDS011;30989;52.078;21.014;2023-12-29T14:39:02;9.85;;;4.05;;